ドーハ の空港の天気 - METARとTAF

ドーハ国際空港 ( OTBD / DOH ) - カタール ドーハ
飛行場実況気象(Metar)
観測時間09/23 13:00 AST (09/23 10:00 UTC)
風向・風速北北東 6m/s
視程10km以上
天気現象
なし
気温39℃
湿度23%
気圧1006hPa
METAROTBD 231000Z 03012KT CAVOK 39/14 Q1006 NOSIG
過去の天気等 Google飛行場航空写真 Wunderground天気予報

過去48時間のMETAR

飛行場予報(TAF)
発表時間: 9/23 07:25 AST (9/23 04:25 UTC)
予報対象時間: 23日9時 AST ~ 24日15時 AST
風向・風速北東 5m/s
視程8,000m
なし
23日20時 AST ~ 23日22時 AST に徐々に
風向・風速不定 1m/s
24日1時 AST ~ 24日7時 AST に 確率 30% で一時的に
視程5,000m
天気現象煙霧
24日8時 AST ~ 24日10時 AST に徐々に
風向・風速北 4m/s
TAF OTBD 230425Z 2306/2412 05010KT 8000 NSC
BECMG 2317/2319 VRB02KT
PROB30 TEMPO 2322/2404 5000 HZ
BECMG 2405/2407 01007KT